Time;durP1;ratioP1;P1;durP2;ratioP2;P2;SDS_P1;SDS_P2;PMS_P1;PMS_P2;Temp;Humidity;BMP_temperature;BMP_pressure;BME280_temperature;BME280_humidity;BME280_pressure;Samples;Min_cycle;Max_cycle;Signal;HPM_P1;HPM_P2
2022/10/15 00:00:33;;;;;;;21.58;10.73;;;12.30;99.90;;;;;;5050412;28;20119;-87
2022/10/15 00:02:59;;;;;;;18.90;9.10;;;12.40;99.90;;;;;;5037832;28;20045;-86
2022/10/15 00:05:25;;;;;;;18.92;9.73;;;12.30;99.90;;;;;;5036839;28;20403;-87
2022/10/15 00:07:51;;;;;;;18.90;10.50;;;12.30;99.90;;;;;;5032207;28;20044;-82
2022/10/15 00:10:18;;;;;;;17.85;10.15;;;12.30;99.90;;;;;;5046630;28;20494;-82
2022/10/15 00:12:44;;;;;;;17.15;10.55;;;12.30;99.90;;;;;;5053131;28;20041;-82
2022/10/15 00:15:10;;;;;;;18.27;10.13;;;12.30;99.90;;;;;;5036138;28;20033;-82
2022/10/15 00:17:36;;;;;;;16.10;9.43;;;12.40;99.90;;;;;;5024843;28;20088;-82
2022/10/15 00:20:08;;;;;;;16.13;9.95;;;12.40;99.90;;;;;;5027397;28;20114;-82
2022/10/15 00:22:34;;;;;;;17.77;9.25;;;12.30;99.90;;;;;;5044636;28;20037;-82
2022/10/15 00:24:59;;;;;;;14.65;8.10;;;12.30;99.90;;;;;;5036154;28;20051;-84
2022/10/15 00:27:25;;;;;;;18.20;9.88;;;12.30;99.90;;;;;;5052643;28;20059;-84
2022/10/15 00:29:51;;;;;;;17.67;8.60;;;12.30;99.90;;;;;;5051181;28;20041;-83
2022/10/15 00:32:16;;;;;;;17.33;9.70;;;12.30;99.90;;;;;;5052792;28;20045;-84
2022/10/15 00:34:42;;;;;;;15.77;9.63;;;12.30;99.90;;;;;;5048884;28;20589;-84
2022/10/15 00:37:08;;;;;;;17.92;9.80;;;12.30;99.90;;;;;;5047840;28;20036;-83
2022/10/15 00:39:35;;;;;;;15.63;9.10;;;12.30;99.90;;;;;;5030150;28;20044;-84
2022/10/15 00:42:01;;;;;;;19.27;9.57;;;12.30;99.90;;;;;;5050362;28;20517;-82
2022/10/15 00:44:29;;;;;;;21.42;10.77;;;12.30;99.90;;;;;;5029002;28;20042;-82
2022/10/15 00:47:04;;;;;;;18.25;9.77;;;12.30;99.90;;;;;;5054305;28;20095;-82
2022/10/15 00:49:34;;;;;;;13.75;7.80;;;12.30;99.90;;;;;;5051596;28;20080;-82
2022/10/15 00:52:02;;;;;;;14.95;7.82;;;12.30;99.90;;;;;;5068304;28;20032;-82
2022/10/15 00:54:33;;;;;;;17.85;8.50;;;12.30;99.90;;;;;;5073228;28;20036;-82
2022/10/15 00:57:00;;;;;;;18.10;8.15;;;12.30;99.90;;;;;;5037373;28;20482;-86
2022/10/15 00:59:27;;;;;;;15.07;7.57;;;12.40;99.90;;;;;;5031687;28;20041;-87
2022/10/15 01:01:54;;;;;;;13.93;7.18;;;12.30;99.90;;;;;;5058734;28;20135;-87
2022/10/15 01:04:21;;;;;;;13.90;7.07;;;12.30;99.90;;;;;;5036372;28;20044;-87
2022/10/15 01:06:46;;;;;;;17.50;9.13;;;12.40;99.90;;;;;;5046685;28;20427;-87
2022/10/15 01:09:13;;;;;;;16.67;9.48;;;12.40;99.90;;;;;;5045247;28;20047;-87
2022/10/15 01:11:48;;;;;;;14.15;8.27;;;12.40;99.90;;;;;;5032562;28;20029;-86
2022/10/15 01:14:22;;;;;;;17.83;8.75;;;12.40;99.90;;;;;;5040479;28;20035;-87
2022/10/15 01:17:08;;;;;;;16.17;8.27;;;12.30;99.90;;;;;;5044179;28;20488;-86
2022/10/15 01:20:04;;;;;;;15.80;9.55;;;12.30;99.90;;;;;;5051989;28;20445;-87
2022/10/15 01:22:53;;;;;;;17.10;9.77;;;12.30;99.90;;;;;;5036822;28;20453;-87
2022/10/15 01:26:01;;;;;;;16.83;9.80;;;12.30;99.90;;;;;;5051744;28;20087;-87
2022/10/15 01:28:45;;;;;;;16.45;7.65;;;12.30;99.90;;;;;;5000456;28;20568;-87
2022/10/15 01:31:24;;;;;;;13.02;8.32;;;12.20;99.90;;;;;;5052638;28;20045;-82
2022/10/15 01:34:11;;;;;;;13.20;8.05;;;12.30;99.90;;;;;;5034222;28;20102;-82
2022/10/15 01:36:45;;;;;;;17.75;9.50;;;12.30;99.90;;;;;;5061183;28;20394;-82
2022/10/15 01:39:22;;;;;;;15.82;8.07;;;12.20;99.90;;;;;;5046357;28;20079;-82
2022/10/15 01:41:57;;;;;;;16.77;8.60;;;12.30;99.90;;;;;;5061126;22;20123;-82
2022/10/15 01:44:29;;;;;;;17.27;8.32;;;12.30;99.90;;;;;;5048436;28;20053;-83
2022/10/15 01:47:03;;;;;;;13.35;7.50;;;12.30;99.90;;;;;;5035506;28;20139;-83
2022/10/15 01:49:37;;;;;;;25.88;11.75;;;12.30;99.90;;;;;;5047783;28;20095;-83
2022/10/15 01:52:11;;;;;;;18.58;9.38;;;12.30;99.90;;;;;;5052614;28;20037;-82
2022/10/15 01:54:39;;;;;;;16.83;9.27;;;12.40;99.90;;;;;;5058893;28;20391;-82
2022/10/15 01:57:06;;;;;;;19.95;11.10;;;12.30;99.90;;;;;;5031367;28;20033;-82
2022/10/15 01:59:33;;;;;;;18.90;10.15;;;12.30;99.90;;;;;;5048990;28;20375;-83
2022/10/15 02:01:59;;;;;;;19.83;9.43;;;12.30;99.90;;;;;;5050930;28;20123;-82
2022/10/15 02:04:27;;;;;;;16.08;8.68;;;12.30;99.90;;;;;;5053935;28;20506;-82
2022/10/15 02:07:07;;;;;;;13.32;6.80;;;12.30;99.90;;;;;;5051837;28;20044;-82
2022/10/15 02:10:09;;;;;;;14.35;7.07;;;12.30;99.90;;;;;;5047322;28;20037;-82
2022/10/15 02:12:53;;;;;;;17.67;9.15;;;12.30;99.90;;;;;;5030670;28;20128;-82
2022/10/15 02:15:36;;;;;;;17.33;9.65;;;12.30;99.90;;;;;;5062693;28;20041;-82
2022/10/15 02:18:04;;;;;;;19.08;9.30;;;12.30;99.90;;;;;;5033812;28;20120;-82
2022/10/15 02:20:56;;;;;;;24.10;10.15;;;12.30;99.90;;;;;;5045625;28;20041;-87
2022/10/15 02:23:43;;;;;;;16.08;8.23;;;12.30;99.90;;;;;;5057718;28;20049;-87
2022/10/15 02:26:10;;;;;;;;;;;12.30;99.90;;;;;;5032860;28;20037;-87
2022/10/15 02:28:38;;;;;;;21.08;9.30;;;12.30;99.90;;;;;;5031904;28;20362;-87
2022/10/15 02:31:05;;;;;;;17.98;8.98;;;12.30;99.90;;;;;;5037301;28;20045;-87
2022/10/15 02:33:33;;;;;;;15.82;8.32;;;12.40;99.90;;;;;;5035270;28;20033;-87
2022/10/15 02:35:59;;;;;;;18.63;9.18;;;12.40;99.90;;;;;;5040145;28;20070;-87
2022/10/15 02:38:26;;;;;;;16.25;7.72;;;12.40;99.90;;;;;;5061143;28;20486;-83
2022/10/15 02:40:53;;;;;;;15.02;7.70;;;12.40;99.90;;;;;;5047959;28;20552;-83
2022/10/15 02:43:20;;;;;;;18.23;8.93;;;12.40;99.90;;;;;;5044755;28;20061;-83
2022/10/15 02:45:47;;;;;;;18.67;9.15;;;12.40;99.90;;;;;;5055620;28;20559;-83
2022/10/15 02:48:13;;;;;;;16.13;8.05;;;12.40;99.90;;;;;;5038201;28;20040;-84
2022/10/15 02:50:39;;;;;;;15.23;8.68;;;12.40;99.90;;;;;;5054527;28;20479;-84
2022/10/15 02:53:05;;;;;;;14.65;8.23;;;12.40;99.90;;;;;;5037513;28;20037;-82
2022/10/15 02:55:30;;;;;;;18.45;8.75;;;12.40;99.90;;;;;;5058354;28;20029;-82
2022/10/15 02:57:56;;;;;;;16.48;8.18;;;12.40;99.90;;;;;;5061116;28;20044;-82
2022/10/15 03:00:22;;;;;;;17.30;8.38;;;12.30;99.90;;;;;;5037026;28;20047;-82
2022/10/15 03:02:47;;;;;;;18.17;8.27;;;12.40;99.90;;;;;;5028178;28;20406;-82
2022/10/15 03:05:13;;;;;;;19.73;9.68;;;12.40;99.90;;;;;;5038751;28;20052;-82
2022/10/15 03:07:39;;;;;;;17.90;9.80;;;12.40;99.90;;;;;;5041134;28;20126;-82
2022/10/15 03:10:05;;;;;;;20.08;9.88;;;12.30;99.90;;;;;;5034699;28;20090;-87
2022/10/15 03:12:31;;;;;;;18.92;9.40;;;12.30;99.90;;;;;;5037558;28;20040;-87
2022/10/15 03:14:56;;;;;;;21.48;9.50;;;12.20;99.90;;;;;;5055112;28;20102;-87
2022/10/15 03:17:22;;;;;;;15.57;8.15;;;12.20;99.90;;;;;;5054234;28;20414;-87
2022/10/15 03:19:48;;;;;;;18.75;9.93;;;12.20;99.90;;;;;;5032955;28;20042;-87
2022/10/15 03:22:13;;;;;;;16.42;8.18;;;12.20;99.90;;;;;;5065384;28;20045;-85
2022/10/15 03:24:39;;;;;;;25.02;10.60;;;12.20;99.90;;;;;;5059489;28;20406;-85
2022/10/15 03:27:05;;;;;;;20.17;9.73;;;12.20;99.90;;;;;;5037833;28;20474;-81
2022/10/15 03:29:30;;;;;;;16.90;8.80;;;12.20;99.90;;;;;;5051935;28;20043;-81
2022/10/15 03:31:56;;;;;;;20.17;8.35;;;12.20;99.90;;;;;;5034013;28;20052;-81
2022/10/15 03:34:22;;;;;;;18.67;8.63;;;12.20;99.90;;;;;;5024025;28;20033;-80
2022/10/15 03:36:47;;;;;;;18.08;9.13;;;12.20;99.90;;;;;;5057554;28;20048;-80
2022/10/15 03:39:13;;;;;;;19.13;9.65;;;12.20;99.90;;;;;;5050543;28;20550;-80
2022/10/15 03:41:39;;;;;;;17.90;8.93;;;12.20;99.90;;;;;;5045017;28;20037;-80
2022/10/15 03:44:07;;;;;;;20.85;10.82;;;12.20;99.90;;;;;;5043089;28;20060;-85
2022/10/15 03:46:33;;;;;;;19.10;8.98;;;12.20;99.90;;;;;;5038187;28;20075;-84
2022/10/15 03:48:59;;;;;;;20.15;9.77;;;12.20;99.90;;;;;;5035395;28;20116;-85
2022/10/15 03:51:25;;;;;;;17.77;9.07;;;12.20;99.90;;;;;;5051193;28;20120;-85
2022/10/15 03:53:52;;;;;;;19.70;9.98;;;12.20;99.90;;;;;;5045202;28;21421;-85
2022/10/15 03:56:17;;;;;;;24.85;10.43;;;12.20;99.90;;;;;;5037058;28;20041;-85
2022/10/15 03:58:43;;;;;;;19.60;10.00;;;12.20;99.90;;;;;;5020602;28;20551;-85
2022/10/15 04:01:15;;;;;;;27.30;10.15;;;12.20;99.90;;;;;;5069964;28;20073;-80
2022/10/15 04:03:41;;;;;;;17.05;9.93;;;12.20;99.90;;;;;;5025697;28;20045;-81
2022/10/15 04:06:07;;;;;;;17.35;8.43;;;12.20;99.90;;;;;;5047912;28;20127;-80
2022/10/15 04:08:33;;;;;;;18.92;9.50;;;12.20;99.90;;;;;;5046444;28;20065;-80
2022/10/15 04:10:59;;;;;;;17.50;8.80;;;12.20;99.90;;;;;;5074454;28;20083;-80
2022/10/15 04:13:26;;;;;;;18.60;9.95;;;12.20;99.90;;;;;;5052236;28;20567;-80
2022/10/15 04:15:52;;;;;;;17.83;8.27;;;12.20;99.90;;;;;;5043776;28;20065;-81
2022/10/15 04:18:20;;;;;;;18.75;9.27;;;12.30;99.90;;;;;;5033797;28;20071;-84
2022/10/15 04:20:47;;;;;;;21.00;9.23;;;12.40;99.90;;;;;;5037422;28;20045;-85
2022/10/15 04:23:12;;;;;;;22.95;10.60;;;12.20;99.90;;;;;;5034853;28;20123;-85
2022/10/15 04:25:39;;;;;;;22.83;10.43;;;12.30;99.90;;;;;;5050512;28;20120;-85
2022/10/15 04:28:04;;;;;;;18.92;8.65;;;12.30;99.90;;;;;;5047443;28;20543;-85
2022/10/15 04:30:30;;;;;;;21.67;10.02;;;12.30;99.90;;;;;;5043501;28;20115;-84
2022/10/15 04:32:56;;;;;;;17.20;9.43;;;12.30;99.90;;;;;;5052790;28;20479;-85
2022/10/15 04:35:22;;;;;;;22.17;9.88;;;12.20;99.90;;;;;;5043968;28;20403;-85
2022/10/15 04:37:47;;;;;;;19.23;9.30;;;12.30;99.90;;;;;;5022202;28;20412;-85
2022/10/15 04:40:14;;;;;;;17.98;8.90;;;12.20;99.90;;;;;;5033362;28;20106;-85
2022/10/15 04:42:39;;;;;;;18.83;9.45;;;12.20;99.90;;;;;;5050252;28;20052;-85
2022/10/15 04:45:06;;;;;;;14.15;7.53;;;12.20;99.90;;;;;;5060200;28;20049;-85
2022/10/15 04:47:32;;;;;;;14.07;7.35;;;12.30;99.90;;;;;;5032275;28;20083;-85
2022/10/15 04:49:58;;;;;;;17.63;8.40;;;12.30;99.90;;;;;;5027623;28;20075;-82
2022/10/15 04:52:23;;;;;;;20.02;9.00;;;12.50;99.90;;;;;;5070804;28;20043;-81
2022/10/15 04:54:49;;;;;;;26.25;10.40;;;12.20;99.90;;;;;;5063708;28;20482;-81
2022/10/15 04:57:15;;;;;;;17.67;9.38;;;12.20;99.90;;;;;;5049610;28;20049;-81
2022/10/15 04:59:43;;;;;;;20.38;9.68;;;12.20;99.90;;;;;;5040824;28;20038;-82
2022/10/15 05:02:09;;;;;;;20.70;10.38;;;12.20;99.90;;;;;;5050180;28;20045;-82
2022/10/15 05:04:35;;;;;;;20.17;9.65;;;12.20;99.90;;;;;;5059734;28;20036;-82
2022/10/15 05:07:00;;;;;;;20.95;10.02;;;12.20;99.90;;;;;;5056087;28;20119;-80
2022/10/15 05:09:26;;;;;;;21.88;10.45;;;12.20;99.90;;;;;;5050772;28;20036;-81
2022/10/15 05:11:54;;;;;;;18.45;9.32;;;12.20;99.90;;;;;;5049844;28;20090;-81
2022/10/15 05:14:20;;;;;;;18.20;9.77;;;12.00;99.90;;;;;;5050374;28;20045;-81
2022/10/15 05:16:45;;;;;;;21.95;10.10;;;12.10;99.90;;;;;;5052620;28;20036;-81
2022/10/15 05:19:11;;;;;;;16.80;8.05;;;12.10;99.90;;;;;;5049954;28;20478;-81
2022/10/15 05:21:37;;;;;;;21.52;9.63;;;12.10;99.90;;;;;;5046909;28;20431;-81
2022/10/15 05:24:04;;;;;;;20.88;9.93;;;12.00;99.90;;;;;;5043925;28;20045;-80
2022/10/15 05:26:31;;;;;;;23.02;10.88;;;12.00;99.90;;;;;;5055348;28;20105;-80
2022/10/15 05:28:58;;;;;;;26.55;11.70;;;12.00;99.90;;;;;;5043425;28;20048;-80
2022/10/15 05:31:29;;;;;;;26.88;12.57;;;12.00;99.90;;;;;;5032560;28;20041;-81
2022/10/15 05:33:56;;;;;;;23.55;11.95;;;12.10;99.90;;;;;;5040446;28;20467;-80
2022/10/15 05:36:21;;;;;;;27.85;13.63;;;12.00;99.90;;;;;;5035518;28;20040;-80
2022/10/15 05:38:50;;;;;;;26.55;10.90;;;12.00;99.90;;;;;;5051395;28;20044;-81
2022/10/15 05:41:16;;;;;;;31.67;12.85;;;12.00;99.90;;;;;;5030690;28;20040;-81
2022/10/15 05:43:42;;;;;;;24.52;10.50;;;12.00;99.90;;;;;;5015451;28;20053;-81
2022/10/15 05:46:08;;;;;;;21.75;11.13;;;12.00;99.90;;;;;;5032163;28;20052;-82
2022/10/15 05:48:34;;;;;;;21.60;10.77;;;12.00;99.90;;;;;;5035160;28;20041;-81
2022/10/15 05:51:05;;;;;;;21.48;10.65;;;12.00;99.90;;;;;;5029337;28;20041;-81
2022/10/15 05:53:30;;;;;;;22.48;11.70;;;12.00;99.90;;;;;;5027615;28;20450;-81
2022/10/15 05:55:59;;;;;;;23.35;11.13;;;12.00;99.90;;;;;;5052885;28;20120;-83
2022/10/15 05:58:26;;;;;;;28.33;13.07;;;11.80;99.90;;;;;;5060262;28;20079;-81
2022/10/15 06:00:56;;;;;;;20.75;10.52;;;12.00;99.90;;;;;;5048621;28;20474;-81
2022/10/15 06:03:22;;;;;;;27.20;12.50;;;12.00;99.90;;;;;;5032110;28;20046;-81
2022/10/15 06:05:48;;;;;;;21.30;11.38;;;12.00;99.90;;;;;;5032058;28;20049;-81
2022/10/15 06:08:14;;;;;;;29.23;13.45;;;12.00;99.90;;;;;;5036729;28;20033;-81
2022/10/15 06:10:40;;;;;;;31.15;12.65;;;12.00;99.90;;;;;;5040946;28;20368;-81
2022/10/15 06:13:06;;;;;;;25.27;12.52;;;12.00;99.90;;;;;;5051008;28;20488;-82
2022/10/15 06:15:32;;;;;;;29.08;13.02;;;12.00;99.90;;;;;;5035340;28;20044;-83
2022/10/15 06:17:59;;;;;;;24.58;12.95;;;12.00;99.90;;;;;;5053894;28;20048;-83
2022/10/15 06:20:26;;;;;;;25.80;13.90;;;12.00;99.90;;;;;;5039038;28;20494;-83
2022/10/15 06:22:57;;;;;;;32.35;14.30;;;12.00;99.90;;;;;;5058790;28;20045;-83
2022/10/15 06:25:23;;;;;;;25.45;11.93;;;12.00;99.90;;;;;;5038153;28;20045;-84
2022/10/15 06:27:48;;;;;;;24.27;11.55;;;12.00;99.90;;;;;;5019556;28;20063;-83
2022/10/15 06:30:14;;;;;;;26.85;13.57;;;12.00;99.90;;;;;;5056765;28;20419;-81
2022/10/15 06:32:46;;;;;;;27.73;13.30;;;12.00;99.90;;;;;;5035771;28;20134;-81
2022/10/15 06:35:12;;;;;;;31.58;15.60;;;12.00;99.90;;;;;;5052517;28;20041;-81
2022/10/15 06:37:38;;;;;;;21.48;10.80;;;12.00;99.90;;;;;;5062398;28;20063;-82
2022/10/15 06:40:04;;;;;;;33.13;14.35;;;12.10;99.90;;;;;;5053202;28;20060;-81
2022/10/15 06:42:29;;;;;;;26.25;13.30;;;12.10;99.90;;;;;;5031700;28;20057;-81
2022/10/15 06:44:55;;;;;;;33.63;14.32;;;12.10;99.90;;;;;;5037568;28;20051;-81
2022/10/15 06:47:21;;;;;;;35.78;15.95;;;12.10;99.90;;;;;;5054772;28;20048;-86
2022/10/15 06:49:46;;;;;;;27.27;13.13;;;12.10;99.90;;;;;;5051049;28;20047;-86
2022/10/15 06:52:12;;;;;;;29.40;14.23;;;12.10;99.90;;;;;;5034019;28;20545;-86
2022/10/15 06:54:38;;;;;;;33.53;15.45;;;12.20;99.90;;;;;;5051029;28;20041;-86
2022/10/15 06:57:04;;;;;;;29.58;14.38;;;12.20;99.90;;;;;;5034559;28;20034;-86
2022/10/15 06:59:30;;;;;;;38.22;14.52;;;12.10;99.90;;;;;;5032510;28;20407;-86
2022/10/15 07:01:55;;;;;;;32.00;15.93;;;12.10;99.90;;;;;;5035282;28;20041;-85
2022/10/15 07:04:23;;;;;;;35.28;15.18;;;12.10;99.90;;;;;;5053931;28;20397;-82
2022/10/15 07:06:48;;;;;;;28.45;13.18;;;12.10;99.90;;;;;;5054724;28;20044;-81
2022/10/15 07:09:14;;;;;;;32.13;15.63;;;12.00;99.90;;;;;;5083202;28;20044;-81
2022/10/15 07:11:40;;;;;;;31.30;13.52;;;12.10;99.90;;;;;;5031140;28;20053;-81
2022/10/15 07:14:06;;;;;;;34.20;15.52;;;12.10;99.90;;;;;;5061628;28;20180;-81
2022/10/15 07:16:31;;;;;;;32.20;15.18;;;12.10;99.90;;;;;;5013961;28;20037;-81
2022/10/15 07:18:57;;;;;;;33.20;13.23;;;12.10;99.90;;;;;;5048302;28;20037;-81
2022/10/15 07:21:23;;;;;;;35.63;16.67;;;12.20;99.90;;;;;;5038259;28;20045;-86
2022/10/15 07:23:49;;;;;;;33.72;14.95;;;12.20;99.90;;;;;;5060511;28;20040;-86
2022/10/15 07:26:14;;;;;;;27.13;14.10;;;12.30;99.90;;;;;;5014677;28;20417;-86
2022/10/15 07:28:40;;;;;;;28.02;14.52;;;12.30;99.90;;;;;;5068491;28;20036;-86
2022/10/15 07:31:06;;;;;;;32.47;15.02;;;12.40;99.90;;;;;;5059181;28;20044;-86
2022/10/15 07:33:33;;;;;;;28.67;13.57;;;12.50;99.90;;;;;;5046058;28;20129;-86
2022/10/15 07:36:11;;;;;;;33.55;16.25;;;12.50;99.90;;;;;;5037440;28;20064;-86
2022/10/15 07:38:40;;;;;;;34.53;15.55;;;12.70;99.90;;;;;;5058477;28;20028;-82
2022/10/15 07:41:08;;;;;;;32.17;15.27;;;12.80;99.90;;;;;;5047154;28;20155;-81
2022/10/15 07:43:35;;;;;;;31.52;14.10;;;12.90;99.90;;;;;;5053484;28;20060;-81
2022/10/15 07:46:02;;;;;;;33.45;15.15;;;13.00;99.90;;;;;;5050714;28;20052;-81
2022/10/15 07:48:28;;;;;;;34.80;16.50;;;13.00;99.90;;;;;;5058696;28;20126;-81
2022/10/15 07:50:58;;;;;;;35.15;15.43;;;13.10;99.90;;;;;;5043801;28;20438;-81
2022/10/15 07:53:24;;;;;;;32.45;14.88;;;13.10;99.90;;;;;;5047676;28;20475;-82
2022/10/15 07:55:50;;;;;;;34.55;16.70;;;13.00;99.90;;;;;;5053450;28;20033;-82
2022/10/15 07:58:16;;;;;;;37.72;17.50;;;13.00;99.90;;;;;;5023130;28;20399;-82
2022/10/15 08:00:42;;;;;;;35.67;16.10;;;13.00;99.90;;;;;;5033491;28;20495;-82
2022/10/15 08:03:07;;;;;;;33.17;16.33;;;12.90;99.90;;;;;;5052407;28;20041;-81
2022/10/15 08:05:34;;;;;;;35.42;16.80;;;12.90;99.90;;;;;;5053217;28;20075;-81
2022/10/15 08:07:59;;;;;;;30.98;13.75;;;12.90;99.90;;;;;;5051671;28;20048;-80
2022/10/15 08:10:26;;;;;;;34.22;15.30;;;13.00;99.90;;;;;;5041737;28;20045;-82
2022/10/15 08:12:52;;;;;;;27.23;14.88;;;13.00;99.90;;;;;;5052838;28;20079;-82
2022/10/15 08:15:18;;;;;;;33.60;15.80;;;13.00;99.90;;;;;;5049499;28;20567;-82
2022/10/15 08:17:44;;;;;;;32.08;14.55;;;13.00;99.90;;;;;;5033922;28;20095;-82
2022/10/15 08:20:10;;;;;;;30.48;14.10;;;13.00;99.90;;;;;;5040095;28;20044;-82
2022/10/15 08:22:36;;;;;;;33.78;15.32;;;13.00;99.90;;;;;;5072880;28;20051;-82
2022/10/15 08:25:02;;;;;;;32.35;14.60;;;13.10;99.90;;;;;;5069310;28;20052;-82
2022/10/15 08:27:28;;;;;;;35.00;15.07;;;13.10;99.90;;;;;;5027135;28;20041;-82
2022/10/15 08:29:54;;;;;;;33.55;15.65;;;13.10;99.90;;;;;;5053319;28;20089;-82
2022/10/15 08:32:19;;;;;;;35.10;16.92;;;13.10;99.90;;;;;;5069772;28;20045;-82
2022/10/15 08:34:45;;;;;;;30.52;14.13;;;13.20;99.90;;;;;;5080313;28;20164;-82
2022/10/15 08:37:11;;;;;;;34.58;15.02;;;13.20;99.90;;;;;;5046054;28;20049;-82
2022/10/15 08:39:36;;;;;;;37.35;14.05;;;13.20;99.90;;;;;;5052751;28;20437;-83
2022/10/15 08:42:11;;;;;;;31.33;13.18;;;13.30;99.90;;;;;;5043851;28;20071;-82
2022/10/15 08:44:48;;;;;;;29.60;13.02;;;13.40;99.90;;;;;;5053411;28;20501;-81
2022/10/15 08:47:42;;;;;;;36.08;14.05;;;13.40;99.90;;;;;;5037001;28;20048;-82
2022/10/15 08:50:33;;;;;;;39.00;17.20;;;13.40;99.90;;;;;;5052590;28;20037;-81
2022/10/15 08:52:59;;;;;;;37.70;13.98;;;13.30;99.90;;;;;;5049865;28;20380;-81
2022/10/15 08:55:32;;;;;;;25.52;11.98;;;13.30;99.90;;;;;;5051788;28;20045;-82
2022/10/15 08:58:02;;;;;;;33.97;15.35;;;13.30;99.90;;;;;;5046216;28;20099;-82
2022/10/15 09:00:45;;;;;;;31.38;14.80;;;13.30;99.90;;;;;;5041868;28;20045;-82
2022/10/15 09:03:23;;;;;;;28.65;13.30;;;13.40;99.90;;;;;;5052178;28;20305;-82
2022/10/15 09:06:22;;;;;;;32.60;13.02;;;13.40;99.90;;;;;;5033095;28;20423;-83
2022/10/15 09:09:05;;;;;;;34.08;14.32;;;13.40;99.90;;;;;;5021370;28;20153;-83
2022/10/15 09:12:01;;;;;;;32.35;12.25;;;13.40;99.90;;;;;;5058623;28;20067;-83
2022/10/15 09:14:42;;;;;;;23.90;11.13;;;13.40;99.90;;;;;;5057029;28;20069;-83
2022/10/15 09:17:23;;;;;;;27.27;11.93;;;13.30;99.90;;;;;;5031906;28;20096;-82
2022/10/15 09:19:54;;;;;;;32.63;13.63;;;13.30;99.90;;;;;;5046215;28;20044;-82
2022/10/15 09:22:32;;;;;;;31.48;12.57;;;13.40;99.90;;;;;;5051307;28;20041;-82
2022/10/15 09:24:58;;;;;;;30.13;13.65;;;13.40;99.90;;;;;;5054501;28;20043;-82
2022/10/15 09:27:34;;;;;;;23.15;12.40;;;13.50;99.90;;;;;;5071924;28;20387;-82
2022/10/15 09:30:18;;;;;;;;;;;13.50;99.90;;;;;;5037730;28;20487;-82
2022/10/15 09:32:55;;;;;;;21.75;11.30;;;13.70;99.90;;;;;;5051652;28;19920;-82
2022/10/15 09:35:35;;;;;;;24.95;10.48;;;13.60;99.90;;;;;;5051613;28;20439;-82
2022/10/15 09:38:26;;;;;;;22.83;10.43;;;13.60;99.90;;;;;;5071855;28;20045;-83
2022/10/15 09:40:55;;;;;;;25.02;11.82;;;13.70;99.90;;;;;;5059724;28;20084;-83
2022/10/15 09:43:30;;;;;;;24.42;10.88;;;13.60;99.90;;;;;;5043805;28;20049;-83
2022/10/15 09:45:56;;;;;;;24.20;11.02;;;13.70;99.90;;;;;;5053226;28;20080;-83
2022/10/15 09:48:24;;;;;;;23.05;10.25;;;13.70;99.90;;;;;;5052503;28;20036;-83
2022/10/15 09:51:02;;;;;;;19.55;9.70;;;13.80;99.90;;;;;;5051983;28;20086;-83
2022/10/15 09:53:51;;;;;;;23.45;10.98;;;13.80;99.90;;;;;;5052285;28;20044;-82
2022/10/15 09:56:25;;;;;;;19.17;9.35;;;13.90;99.90;;;;;;5039245;28;20041;-82
2022/10/15 09:58:56;;;;;;;23.50;9.45;;;13.90;99.90;;;;;;5069228;28;20040;-82
2022/10/15 10:01:24;;;;;;;20.73;9.93;;;13.90;99.90;;;;;;5036029;28;20071;-82
2022/10/15 10:04:12;;;;;;;19.80;9.10;;;13.90;99.90;;;;;;5036318;28;20116;-82
2022/10/15 10:07:02;;;;;;;19.08;9.40;;;14.00;99.90;;;;;;5037291;28;20072;-81
2022/10/15 10:09:33;;;;;;;19.23;8.55;;;14.00;99.90;;;;;;5062496;28;20048;-81
2022/10/15 10:12:06;;;;;;;17.58;8.23;;;14.00;99.90;;;;;;5059145;28;20479;-82
2022/10/15 10:14:41;;;;;;;22.50;9.75;;;14.10;99.90;;;;;;5035937;28;20045;-82
2022/10/15 10:17:07;;;;;;;21.63;9.57;;;14.10;99.90;;;;;;5046388;28;20052;-82
2022/10/15 10:19:33;;;;;;;19.88;9.00;;;14.10;99.90;;;;;;5057386;28;20066;-82
2022/10/15 10:22:16;;;;;;;18.73;8.13;;;14.20;99.90;;;;;;5038398;28;20041;-82
2022/10/15 10:24:41;;;;;;;18.08;8.77;;;14.40;99.90;;;;;;5054644;28;20087;-82
2022/10/15 10:27:27;;;;;;;19.35;8.18;;;14.60;99.90;;;;;;5055101;28;20459;-82
2022/10/15 10:30:05;;;;;;;14.40;7.70;;;14.70;99.90;;;;;;5070057;28;20112;-82
2022/10/15 10:32:33;;;;;;;16.15;8.55;;;14.80;99.90;;;;;;5058353;28;20051;-82
2022/10/15 10:35:02;;;;;;;16.52;7.68;;;15.00;99.90;;;;;;5035196;28;20083;-82
2022/10/15 10:37:28;;;;;;;15.52;7.28;;;15.00;99.90;;;;;;5085378;28;20494;-82
2022/10/15 10:39:59;;;;;;;16.33;7.97;;;15.00;99.90;;;;;;5052450;28;20092;-82
2022/10/15 10:42:33;;;;;;;14.38;6.50;;;15.00;99.90;;;;;;5054788;28;20037;-82
2022/10/15 10:45:20;;;;;;;13.05;6.53;;;15.00;99.90;;;;;;5065527;28;20510;-82
2022/10/15 10:47:46;;;;;;;12.77;6.85;;;14.90;99.90;;;;;;5056583;28;20037;-83
2022/10/15 10:50:32;;;;;;;15.07;7.20;;;14.90;99.90;;;;;;5049113;28;20052;-82
2022/10/15 10:53:18;;;;;;;10.80;5.07;;;14.80;99.90;;;;;;5040209;28;20045;-82
2022/10/15 10:55:45;;;;;;;12.90;6.35;;;14.90;99.90;;;;;;5054449;28;20504;-82
2022/10/15 10:58:20;;;;;;;12.70;6.43;;;14.90;99.90;;;;;;5049827;28;20516;-82
2022/10/15 11:00:49;;;;;;;14.85;6.32;;;14.90;99.90;;;;;;5065210;28;20098;-81
2022/10/15 11:03:35;;;;;;;14.93;5.65;;;15.10;99.90;;;;;;5035735;28;20111;-81
2022/10/15 11:06:28;;;;;;;11.77;5.93;;;15.10;99.90;;;;;;5037850;28;20049;-82
2022/10/15 11:09:08;;;;;;;11.98;5.93;;;15.10;99.90;;;;;;5052654;28;20107;-81
2022/10/15 11:12:12;;;;;;;13.18;6.18;;;15.20;99.90;;;;;;5048099;28;20048;-81
2022/10/15 11:14:54;;;;;;;12.45;5.65;;;15.20;99.90;;;;;;5020250;28;20037;-83
2022/10/15 11:17:53;;;;;;;12.18;5.45;;;15.20;99.90;;;;;;5049415;28;20037;-82
2022/10/15 11:20:47;;;;;;;10.02;5.05;;;15.20;99.90;;;;;;5053475;28;20055;-83
2022/10/15 11:23:32;;;;;;;12.07;5.78;;;15.50;99.90;;;;;;5053371;28;20391;-83
2022/10/15 11:26:09;;;;;;;14.43;6.80;;;15.60;99.90;;;;;;5052871;28;20055;-83
2022/10/15 11:28:44;;;;;;;11.45;5.93;;;15.90;99.90;;;;;;5039143;28;20037;-83
2022/10/15 11:31:43;;;;;;;12.85;5.55;;;15.90;99.90;;;;;;5050355;28;20414;-82
2022/10/15 11:34:35;;;;;;;10.43;4.75;;;16.20;99.90;;;;;;5021696;28;20051;-82
2022/10/15 11:37:17;;;;;;;9.60;4.88;;;16.30;99.90;;;;;;5050068;28;20039;-83
2022/10/15 11:40:18;;;;;;;9.68;4.80;;;16.40;99.90;;;;;;5053076;28;20041;-83
2022/10/15 11:42:59;;;;;;;8.07;4.05;;;16.50;99.90;;;;;;5031050;28;20056;-83
2022/10/15 11:45:37;;;;;;;7.95;4.43;;;16.50;99.90;;;;;;5051883;28;20045;-83
2022/10/15 11:48:14;;;;;;;10.20;4.55;;;16.70;99.90;;;;;;5053139;28;20044;-82
2022/10/15 11:50:49;;;;;;;8.98;4.28;;;16.80;99.90;;;;;;5053269;28;20037;-82
2022/10/15 11:53:43;;;;;;;8.00;4.25;;;16.80;99.90;;;;;;5049107;28;20387;-84
2022/10/15 11:56:19;;;;;;;8.40;4.00;;;17.00;99.90;;;;;;5054287;28;20052;-83
2022/10/15 11:59:03;;;;;;;7.22;4.03;;;17.20;99.90;;;;;;5036342;28;20089;-82
2022/10/15 12:01:36;;;;;;;6.75;4.00;;;17.20;99.90;;;;;;5036718;28;20040;-83
2022/10/15 12:04:08;;;;;;;10.65;4.30;;;;;;;;;;5050619;28;20080;-83
2022/10/15 12:06:38;;;;;;;7.72;4.03;;;;;;;;;;5056876;28;20387;-83
2022/10/15 12:09:06;;;;;;;6.65;4.35;;;16.80;99.90;;;;;;5061878;28;20502;-83
2022/10/15 12:11:54;;;;;;;7.28;4.28;;;16.70;99.90;;;;;;5057282;28;20047;-83
2022/10/15 12:14:47;;;;;;;7.97;3.80;;;16.60;99.90;;;;;;5068790;28;20033;-83
2022/10/15 12:17:55;;;;;;;7.93;3.97;;;16.60;99.90;;;;;;5041605;28;20087;-83
2022/10/15 12:20:22;;;;;;;8.45;4.28;;;16.50;99.90;;;;;;5034183;28;20076;-81
2022/10/15 12:22:59;;;;;;;6.10;3.65;;;16.50;99.90;;;;;;5029086;28;20057;-81
2022/10/15 12:25:34;;;;;;;9.50;4.50;;;16.50;99.90;;;;;;5034852;28;20052;-81
2022/10/15 12:28:00;;;;;;;8.77;4.43;;;16.40;99.90;;;;;;5034069;28;20099;-81
2022/10/15 12:30:28;;;;;;;6.68;3.63;;;16.50;99.90;;;;;;5040836;28;20044;-81
2022/10/15 12:32:54;;;;;;;7.43;4.13;;;16.40;99.90;;;;;;5052753;28;20064;-81
2022/10/15 12:35:21;;;;;;;7.82;4.10;;;16.40;99.90;;;;;;5051661;28;20037;-81
2022/10/15 12:37:48;;;;;;;7.95;4.10;;;16.30;99.90;;;;;;5057420;28;20127;-81
2022/10/15 12:40:29;;;;;;;9.13;4.30;;;16.20;99.90;;;;;;5077091;28;20048;-81
2022/10/15 12:42:59;;;;;;;8.13;4.13;;;16.10;99.90;;;;;;5033910;28;20114;-81
2022/10/15 12:45:38;;;;;;;6.60;3.60;;;16.00;99.90;;;;;;5052209;28;20132;-81
2022/10/15 12:48:04;;;;;;;7.75;4.18;;;15.90;99.90;;;;;;5072902;28;20049;-81
2022/10/15 12:50:31;;;;;;;8.70;4.65;;;15.80;99.90;;;;;;5033373;28;20033;-81
2022/10/15 12:53:28;;;;;;;11.65;5.40;;;15.80;99.90;;;;;;5035549;28;20471;-81
2022/10/15 12:56:09;;;;;;;7.55;4.25;;;15.70;99.90;;;;;;5070589;28;20487;-81